# Tabular Observed and Forecast Hydrograph Information
#
# Location: Trinity River - Junction City (TRJC1)
#
# File Generation Time: 09/03/2026 at 07:14 AM PDT
# Data Interval: 1 Hour
#
# Most Recent Date & Time of Maximum Observed: 09/02/2026 at 02:00 PM PDT
# Maximum Observed Stage: 2.97 Feet
# Maximum Observed Flow: 1136 cfs
#
# Earliest Date & Time of Maximum Forecast: 09/03/2026 at 10:00 AM PDT
# Maximum Forecast Stage: 2.94 Feet
# Maximum Forecast Flow: 1115 cfs
#
# OBSERVED
#
# Date & Time (Local) Stage (Feet) Flow (cfs) Trend Observed Status
# ---------------------------------------------------------------------------------
08/29/2026 07 AM PDT 2.87 1067 Not Applicable
08/29/2026 08 AM PDT 2.86 1060 - Not Applicable
08/29/2026 09 AM PDT 2.86 1060 0 Not Applicable
08/29/2026 10 AM PDT 2.88 1073 + Not Applicable
08/29/2026 11 AM PDT 2.90 1087 + Not Applicable
08/29/2026 12 PM PDT 2.90 1087 0 Not Applicable
08/29/2026 01 PM PDT 2.91 1094 + Not Applicable
08/29/2026 02 PM PDT 2.91 1094 0 Not Applicable
08/29/2026 03 PM PDT 2.91 1094 0 Not Applicable
08/29/2026 04 PM PDT 2.93 1108 + Not Applicable
08/29/2026 05 PM PDT 2.92 1101 - Not Applicable
08/29/2026 06 PM PDT 2.93 1108 + Not Applicable
08/29/2026 07 PM PDT 2.91 1094 - Not Applicable
08/29/2026 08 PM PDT 2.91 1094 0 Not Applicable
08/29/2026 09 PM PDT 2.91 1094 0 Not Applicable
08/29/2026 10 PM PDT 2.88 1073 - Not Applicable
08/29/2026 11 PM PDT 2.90 1087 + Not Applicable
08/30/2026 12 AM PDT 2.90 1087 0 Not Applicable
08/30/2026 01 AM PDT 2.90 1087 0 Not Applicable
08/30/2026 02 AM PDT 2.90 1087 0 Not Applicable
08/30/2026 03 AM PDT 2.90 1087 0 Not Applicable
08/30/2026 04 AM PDT 2.89 1080 - Not Applicable
08/30/2026 05 AM PDT 2.90 1087 + Not Applicable
08/30/2026 06 AM PDT 2.89 1080 - Not Applicable
08/30/2026 07 AM PDT 2.90 1087 + Not Applicable
08/30/2026 08 AM PDT 2.90 1087 0 Not Applicable
08/30/2026 09 AM PDT 2.93 1108 + Not Applicable
08/30/2026 10 AM PDT 2.90 1087 - Not Applicable
08/30/2026 11 AM PDT 2.93 1108 + Not Applicable
08/30/2026 12 PM PDT 2.91 1094 - Not Applicable
08/30/2026 01 PM PDT 2.93 1108 + Not Applicable
08/30/2026 02 PM PDT 2.91 1094 - Not Applicable
08/30/2026 03 PM PDT 2.93 1108 + Not Applicable
08/30/2026 04 PM PDT 2.92 1101 - Not Applicable
08/30/2026 05 PM PDT 2.93 1108 + Not Applicable
08/30/2026 06 PM PDT 2.94 1115 + Not Applicable
08/30/2026 07 PM PDT 2.92 1101 - Not Applicable
08/30/2026 08 PM PDT 2.92 1101 0 Not Applicable
08/30/2026 09 PM PDT 2.92 1101 0 Not Applicable
08/30/2026 10 PM PDT 2.91 1094 - Not Applicable
08/30/2026 11 PM PDT 2.91 1094 0 Not Applicable
08/31/2026 12 AM PDT 2.91 1094 0 Not Applicable
08/31/2026 01 AM PDT 2.90 1087 - Not Applicable
08/31/2026 02 AM PDT 2.89 1080 - Not Applicable
08/31/2026 03 AM PDT 2.89 1080 0 Not Applicable
08/31/2026 04 AM PDT 2.89 1080 0 Not Applicable
08/31/2026 05 AM PDT 2.90 1087 + Not Applicable
08/31/2026 06 AM PDT 2.90 1087 0 Not Applicable
08/31/2026 07 AM PDT 2.93 1108 + Not Applicable
08/31/2026 08 AM PDT 2.92 1101 - Not Applicable
08/31/2026 09 AM PDT 2.93 1108 + Not Applicable
08/31/2026 10 AM PDT 2.93 1108 0 Not Applicable
08/31/2026 11 AM PDT 2.93 1108 0 Not Applicable
08/31/2026 12 PM PDT 2.95 1122 + Not Applicable
08/31/2026 01 PM PDT 2.94 1115 - Not Applicable
08/31/2026 02 PM PDT 2.94 1115 0 Not Applicable
08/31/2026 03 PM PDT 2.95 1122 + Not Applicable
08/31/2026 04 PM PDT 2.94 1115 - Not Applicable
08/31/2026 05 PM PDT 2.94 1115 0 Not Applicable
08/31/2026 06 PM PDT 2.93 1108 - Not Applicable
08/31/2026 07 PM PDT 2.94 1115 + Not Applicable
08/31/2026 08 PM PDT 2.91 1094 - Not Applicable
08/31/2026 09 PM PDT 2.92 1101 + Not Applicable
08/31/2026 10 PM PDT 2.91 1094 - Not Applicable
08/31/2026 11 PM PDT 2.93 1108 + Not Applicable
09/01/2026 12 AM PDT 2.91 1094 - Not Applicable
09/01/2026 01 AM PDT 2.92 1101 + Not Applicable
09/01/2026 02 AM PDT 2.91 1094 - Not Applicable
09/01/2026 03 AM PDT 2.90 1087 - Not Applicable
09/01/2026 04 AM PDT 2.89 1080 - Not Applicable
09/01/2026 05 AM PDT 2.91 1094 + Not Applicable
09/01/2026 06 AM PDT 2.91 1094 0 Not Applicable
09/01/2026 07 AM PDT 2.92 1101 + Not Applicable
09/01/2026 08 AM PDT 2.93 1108 + Not Applicable
09/01/2026 09 AM PDT 2.93 1108 0 Not Applicable
09/01/2026 10 AM PDT 2.94 1115 + Not Applicable
09/01/2026 11 AM PDT 2.95 1122 + Not Applicable
09/01/2026 12 PM PDT 2.96 1129 + Not Applicable
09/01/2026 01 PM PDT 2.96 1129 0 Not Applicable
09/01/2026 02 PM PDT 2.97 1136 + Not Applicable
09/01/2026 03 PM PDT 2.96 1129 - Not Applicable
09/01/2026 04 PM PDT 2.94 1115 - Not Applicable
09/01/2026 05 PM PDT 2.95 1122 + Not Applicable
09/01/2026 06 PM PDT 2.94 1115 - Not Applicable
09/01/2026 07 PM PDT 2.93 1108 - Not Applicable
09/01/2026 08 PM PDT 2.93 1108 0 Not Applicable
09/01/2026 09 PM PDT 2.93 1108 0 Not Applicable
09/01/2026 10 PM PDT 2.93 1108 0 Not Applicable
09/01/2026 11 PM PDT 2.92 1101 - Not Applicable
09/02/2026 12 AM PDT 2.93 1108 + Not Applicable
09/02/2026 01 AM PDT 2.93 1108 0 Not Applicable
09/02/2026 02 AM PDT 2.93 1108 0 Not Applicable
09/02/2026 03 AM PDT 2.92 1101 - Not Applicable
09/02/2026 04 AM PDT 2.93 1108 + Not Applicable
09/02/2026 05 AM PDT 2.94 1115 + Not Applicable
09/02/2026 06 AM PDT 2.93 1108 - Not Applicable
09/02/2026 07 AM PDT 2.94 1115 + Not Applicable
09/02/2026 08 AM PDT 2.95 1122 + Not Applicable
09/02/2026 09 AM PDT 2.93 1108 - Not Applicable
09/02/2026 10 AM PDT 2.93 1108 0 Not Applicable
09/02/2026 11 AM PDT 2.94 1115 + Not Applicable
09/02/2026 12 PM PDT 2.95 1122 + Not Applicable
09/02/2026 01 PM PDT 2.93 1108 - Not Applicable
09/02/2026 02 PM PDT 2.97 1136 + Not Applicable
09/02/2026 03 PM PDT 2.95 1122 - Not Applicable
09/02/2026 04 PM PDT 2.95 1122 0 Not Applicable
09/02/2026 05 PM PDT 2.94 1115 - Not Applicable
09/02/2026 06 PM PDT 2.92 1101 - Not Applicable
09/02/2026 07 PM PDT 2.93 1108 + Not Applicable
09/02/2026 08 PM PDT 2.93 1108 0 Not Applicable
09/02/2026 09 PM PDT 2.93 1108 0 Not Applicable
09/02/2026 10 PM PDT 2.92 1101 - Not Applicable
09/02/2026 11 PM PDT 2.92 1101 0 Not Applicable
09/03/2026 12 AM PDT 2.91 1094 - Not Applicable
09/03/2026 01 AM PDT 2.91 1094 0 Not Applicable
09/03/2026 02 AM PDT 2.91 1094 0 Not Applicable
09/03/2026 03 AM PDT 2.92 1101 + Not Applicable
09/03/2026 04 AM PDT 2.91 1094 - Not Applicable
09/03/2026 05 AM PDT 2.92 1101 + Not Applicable
09/03/2026 06 AM PDT 2.93 1108 + Not Applicable
#
# FORECAST
#
# Date & Time (Local) Stage (Feet) Flow (cfs) Trend Forecast Status
# ---------------------------------------------------------------------------------
09/03/2026 07 AM PDT 2.93 1108 Not Applicable
09/03/2026 08 AM PDT 2.93 1108 0 Not Applicable
09/03/2026 09 AM PDT 2.93 1108 0 Not Applicable
09/03/2026 10 AM PDT 2.94 1115 + Not Applicable
09/03/2026 11 AM PDT 2.94 1115 0 Not Applicable
09/03/2026 12 PM PDT 2.94 1115 0 Not Applicable
09/03/2026 01 PM PDT 2.94 1115 0 Not Applicable
09/03/2026 02 PM PDT 2.94 1115 0 Not Applicable
09/03/2026 03 PM PDT 2.94 1115 0 Not Applicable
09/03/2026 04 PM PDT 2.94 1115 0 Not Applicable
09/03/2026 05 PM PDT 2.94 1115 0 Not Applicable
09/03/2026 06 PM PDT 2.94 1115 0 Not Applicable
09/03/2026 07 PM PDT 2.94 1115 0 Not Applicable
09/03/2026 08 PM PDT 2.94 1115 0 Not Applicable
09/03/2026 09 PM PDT 2.94 1115 0 Not Applicable
09/03/2026 10 PM PDT 2.94 1115 0 Not Applicable
09/03/2026 11 PM PDT 2.94 1115 0 Not Applicable
09/04/2026 12 AM PDT 2.94 1115 0 Not Applicable
09/04/2026 01 AM PDT 2.94 1115 0 Not Applicable
09/04/2026 02 AM PDT 2.93 1108 - Not Applicable
09/04/2026 03 AM PDT 2.93 1108 0 Not Applicable
09/04/2026 04 AM PDT 2.93 1108 0 Not Applicable
09/04/2026 05 AM PDT 2.93 1108 0 Not Applicable
09/04/2026 06 AM PDT 2.93 1108 0 Not Applicable
09/04/2026 07 AM PDT 2.93 1108 0 Not Applicable
09/04/2026 08 AM PDT 2.93 1108 0 Not Applicable
09/04/2026 09 AM PDT 2.93 1108 0 Not Applicable
09/04/2026 10 AM PDT 2.93 1108 0 Not Applicable
09/04/2026 11 AM PDT 2.93 1108 0 Not Applicable
09/04/2026 12 PM PDT 2.92 1101 - Not Applicable
09/04/2026 01 PM PDT 2.92 1101 0 Not Applicable
09/04/2026 02 PM PDT 2.92 1101 0 Not Applicable
09/04/2026 03 PM PDT 2.92 1101 0 Not Applicable
09/04/2026 04 PM PDT 2.92 1101 0 Not Applicable
09/04/2026 05 PM PDT 2.92 1101 0 Not Applicable
09/04/2026 06 PM PDT 2.92 1101 0 Not Applicable
09/04/2026 07 PM PDT 2.92 1101 0 Not Applicable
09/04/2026 08 PM PDT 2.92 1101 0 Not Applicable
09/04/2026 09 PM PDT 2.92 1101 0 Not Applicable
09/04/2026 10 PM PDT 2.92 1101 0 Not Applicable
09/04/2026 11 PM PDT 2.92 1101 0 Not Applicable
09/05/2026 12 AM PDT 2.92 1101 0 Not Applicable
09/05/2026 01 AM PDT 2.92 1101 0 Not Applicable
09/05/2026 02 AM PDT 2.92 1101 0 Not Applicable
09/05/2026 03 AM PDT 2.92 1101 0 Not Applicable
09/05/2026 04 AM PDT 2.92 1101 0 Not Applicable
09/05/2026 05 AM PDT 2.92 1101 0 Not Applicable
09/05/2026 06 AM PDT 2.92 1101 0 Not Applicable
09/05/2026 07 AM PDT 2.92 1101 0 Not Applicable
09/05/2026 08 AM PDT 2.92 1101 0 Not Applicable
09/05/2026 09 AM PDT 2.92 1101 0 Not Applicable
09/05/2026 10 AM PDT 2.92 1101 0 Not Applicable
09/05/2026 11 AM PDT 2.92 1101 0 Not Applicable
09/05/2026 12 PM PDT 2.92 1101 0 Not Applicable
09/05/2026 01 PM PDT 2.92 1101 0 Not Applicable
09/05/2026 02 PM PDT 2.92 1101 0 Not Applicable
09/05/2026 03 PM PDT 2.92 1101 0 Not Applicable
09/05/2026 04 PM PDT 2.92 1101 0 Not Applicable
09/05/2026 05 PM PDT 2.92 1101 0 Not Applicable
09/05/2026 06 PM PDT 2.92 1101 0 Not Applicable
09/05/2026 07 PM PDT 2.92 1101 0 Not Applicable
09/05/2026 08 PM PDT 2.92 1101 0 Not Applicable
09/05/2026 09 PM PDT 2.92 1101 0 Not Applicable
09/05/2026 10 PM PDT 2.92 1101 0 Not Applicable
09/05/2026 11 PM PDT 2.92 1101 0 Not Applicable
09/06/2026 12 AM PDT 2.92 1101 0 Not Applicable
09/06/2026 01 AM PDT 2.92 1101 0 Not Applicable
09/06/2026 02 AM PDT 2.92 1101 0 Not Applicable
09/06/2026 03 AM PDT 2.92 1101 0 Not Applicable
09/06/2026 04 AM PDT 2.92 1101 0 Not Applicable
09/06/2026 05 AM PDT 2.92 1101 0 Not Applicable
09/06/2026 06 AM PDT 2.92 1101 0 Not Applicable
09/06/2026 07 AM PDT 2.92 1101 0 Not Applicable
09/06/2026 08 AM PDT 2.92 1101 0 Not Applicable
09/06/2026 09 AM PDT 2.92 1101 0 Not Applicable
09/06/2026 10 AM PDT 2.92 1101 0 Not Applicable
09/06/2026 11 AM PDT 2.92 1101 0 Not Applicable
09/06/2026 12 PM PDT 2.92 1101 0 Not Applicable
09/06/2026 01 PM PDT 2.92 1101 0 Not Applicable
09/06/2026 02 PM PDT 2.92 1101 0 Not Applicable
09/06/2026 03 PM PDT 2.92 1101 0 Not Applicable
09/06/2026 04 PM PDT 2.92 1101 0 Not Applicable
09/06/2026 05 PM PDT 2.92 1101 0 Not Applicable
09/06/2026 06 PM PDT 2.92 1101 0 Not Applicable
09/06/2026 07 PM PDT 2.92 1101 0 Not Applicable
09/06/2026 08 PM PDT 2.92 1101 0 Not Applicable
09/06/2026 09 PM PDT 2.92 1101 0 Not Applicable
09/06/2026 10 PM PDT 2.92 1101 0 Not Applicable
09/06/2026 11 PM PDT 2.92 1101 0 Not Applicable
09/07/2026 12 AM PDT 2.92 1101 0 Not Applicable
09/07/2026 01 AM PDT 2.92 1101 0 Not Applicable
09/07/2026 02 AM PDT 2.92 1101 0 Not Applicable
09/07/2026 03 AM PDT 2.92 1101 0 Not Applicable
09/07/2026 04 AM PDT 2.92 1101 0 Not Applicable
09/07/2026 05 AM PDT 2.92 1101 0 Not Applicable
09/07/2026 06 AM PDT 2.92 1101 0 Not Applicable
09/07/2026 07 AM PDT 2.92 1101 0 Not Applicable
09/07/2026 08 AM PDT 2.92 1101 0 Not Applicable
09/07/2026 09 AM PDT 2.92 1101 0 Not Applicable
09/07/2026 10 AM PDT 2.92 1101 0 Not Applicable
09/07/2026 11 AM PDT 2.92 1101 0 Not Applicable
09/07/2026 12 PM PDT 2.92 1101 0 Not Applicable
09/07/2026 01 PM PDT 2.92 1101 0 Not Applicable
09/07/2026 02 PM PDT 2.92 1101 0 Not Applicable
09/07/2026 03 PM PDT 2.92 1101 0 Not Applicable
09/07/2026 04 PM PDT 2.92 1101 0 Not Applicable
09/07/2026 05 PM PDT 2.92 1101 0 Not Applicable
09/07/2026 06 PM PDT 2.92 1101 0 Not Applicable
09/07/2026 07 PM PDT 2.92 1101 0 Not Applicable
09/07/2026 08 PM PDT 2.92 1101 0 Not Applicable
09/07/2026 09 PM PDT 2.92 1101 0 Not Applicable
09/07/2026 10 PM PDT 2.92 1101 0 Not Applicable
09/07/2026 11 PM PDT 2.92 1101 0 Not Applicable
09/08/2026 12 AM PDT 2.92 1101 0 Not Applicable
09/08/2026 01 AM PDT 2.92 1101 0 Not Applicable
09/08/2026 02 AM PDT 2.92 1101 0 Not Applicable
09/08/2026 03 AM PDT 2.92 1101 0 Not Applicable
09/08/2026 04 AM PDT 2.92 1101 0 Not Applicable
09/08/2026 05 AM PDT 2.92 1101 0 Not Applicable
#
# NOTE 1: Stages are rounded to the nearest hundredth (.01) of a foot.
# NOTE 2: Flows are rounded to the nearest (1) cfs.
# NOTE 3: Trends are determined using hourly change in unrounded stage and flow.
# NOTE 4: Maximum Values are determined using unrounded stage and flow.
|